Etusivu
METAR-TAF:

METAR-TAF

Lentoasemat :

Vidsel, Ruotsi

Leveyspiiri: 65-52N, Pituuspiiri: 020-08E, korkeus merenpinnasta: 180 m

Tämänhetkinen sää

Tämä raportti tehtiin 15 minuuttia sitten, kello 09.50 UTC
Tuuli 5 kn eri suunnista
Lämpötila 9°C
Kosteus 43%
Ilmanpaine 1015 hPa
Näkyvyys 10 km tai enemmän

METAR: ESPE 270950Z AUTO VRB05KT 9999 BKN140/// 09/M03 Q1015

Aika: 12:05 (10:05 UTC)

Sääennuste

Tämä raportti tehtiin 22 tuntia ja 55 minuuttia sitten, kello 11.10 UTC
Ennuste voimassa 26. päivästä klo 12 UTC - 26. päivään klo 15 UTC
Tuuli 5 kn lännestä/luoteesta
Näkyvyys 10 km tai enemmän
ei pilviä alle 1500 m:ssä eikä cumulonimbus-pilviä

TAF: ESPE 261110Z 2612/2615 30005KT CAVOK RMK MIL

Säähavainnot ja -ennusteet yli 4000 lentoasemalta (METAR- ja TAF-raportit).

Käytössä olevat sääasemat on merkitty karttaan keltaisilla ja punaisilla pisteillä.

Aseta hiiri pisteen päälle nähdäksesi sääaseman nimen.

Klikkaa sitten nähdäksesi säähavainnot ja -ennusteet.

Kartan vaihtaminen: klikkaa mustalla rastilla varustettuja vihreitä pisteitä, niin voit zoomata sisään; viivalla varustettua vihreää pistettä, niin voit zoomata ulos tai vihreitä nuolia, niin pääset viereisille kartoille.


METAR-TAF: